Time;durP1;ratioP1;P1;durP2;ratioP2;P2;SDS_P1;SDS_P2;PMS_P1;PMS_P2;Temp;Humidity;BMP_temperature;BMP_pressure;BME280_temperature;BME280_humidity;BME280_pressure;Samples;Min_cycle;Max_cycle;Signal;HPM_P1;HPM_P2
2022/03/04 00:01:38;;;;;;;30.42;16.42;;;3.80;80.90;;;0.63;82.04;100942.84;4976933;28;20049;-83
2022/03/04 00:04:05;;;;;;;35.70;17.98;;;3.80;81.00;;;0.63;82.03;100939.28;4961682;28;20124;-83
2022/03/04 00:06:34;;;;;;;32.40;18.48;;;3.70;81.20;;;0.66;82.71;100934.56;4972960;28;20386;-83
2022/03/04 00:09:01;;;;;;;35.03;18.13;;;3.70;81.40;;;0.64;82.78;100939.16;4973077;28;20047;-83
2022/03/04 00:11:29;;;;;;;32.35;18.17;;;3.70;81.60;;;0.59;82.87;100949.34;4972993;28;20521;-83
2022/03/04 00:13:56;;;;;;;36.60;18.38;;;3.60;81.60;;;0.51;83.21;100955.25;4955637;28;20051;-83
2022/03/04 00:16:24;;;;;;;33.22;18.23;;;3.60;81.70;;;0.52;83.18;100962.34;4988543;28;20050;-83
2022/03/04 00:19:06;;;;;;;32.47;17.73;;;3.60;82.00;;;0.56;83.74;100957.63;4986615;28;20588;-83
2022/03/04 00:21:35;;;;;;;35.00;18.30;;;3.60;82.30;;;0.52;83.35;100961.47;4977102;28;20043;-83
2022/03/04 00:24:03;;;;;;;32.15;18.13;;;3.50;82.30;;;0.58;83.47;100961.03;4972667;28;20134;-83
2022/03/04 00:26:30;;;;;;;33.67;18.73;;;3.50;82.70;;;0.58;83.74;100961.03;4973104;28;20137;-83
2022/03/04 00:28:58;;;;;;;36.28;18.73;;;3.40;82.90;;;0.53;83.84;100969.41;4975482;28;20046;-83
2022/03/04 00:31:26;;;;;;;32.22;18.33;;;3.40;83.00;;;0.44;83.79;100964.72;4991449;28;20050;-83
2022/03/04 00:33:53;;;;;;;33.97;18.52;;;3.40;83.00;;;0.30;84.54;100965.66;4991286;28;20137;-83
2022/03/04 00:36:22;;;;;;;32.28;18.25;;;3.30;83.20;;;0.27;84.94;100973.06;4982866;28;20077;-83
2022/03/04 00:38:51;;;;;;;31.17;17.50;;;3.30;83.40;;;0.23;84.93;100975.09;4980611;28;20406;-83
2022/03/04 00:41:19;;;;;;;31.50;17.17;;;3.20;83.20;;;0.21;85.30;100969.00;4991622;28;20046;-83
2022/03/04 00:43:47;;;;;;;38.33;18.92;;;3.20;83.40;;;0.18;85.50;100979.91;4982306;28;20043;-83
2022/03/04 00:46:15;;;;;;;36.38;18.75;;;3.20;83.60;;;0.16;85.80;100976.47;4978621;28;20046;-83
2022/03/04 00:48:46;;;;;;;33.10;18.52;;;3.10;83.80;;;0.16;86.21;100982.69;4991051;28;20054;-83
2022/03/04 00:51:14;;;;;;;39.80;18.80;;;3.10;83.90;;;0.29;86.09;100977.34;4991309;28;20034;-83
2022/03/04 00:53:42;;;;;;;40.50;19.27;;;3.10;84.40;;;0.31;85.59;100980.78;4985757;28;20121;-83
2022/03/04 00:56:13;;;;;;;34.28;17.75;;;3.10;84.20;;;0.22;85.21;100986.75;4976688;28;20051;-83
2022/03/04 00:58:41;;;;;;;37.83;18.98;;;3.10;84.10;;;0.28;85.28;100983.66;4972423;28;20436;-84
2022/03/04 01:01:09;;;;;;;38.75;19.10;;;3.10;84.20;;;0.24;85.11;100983.97;4954463;28;20057;-83
2022/03/04 01:03:36;;;;;;;36.80;18.33;;;3.10;84.00;;;0.18;85.26;100979.91;4977420;28;20042;-83
2022/03/04 01:06:06;;;;;;;34.58;19.20;;;3.10;84.00;;;0.15;85.60;100975.63;4991357;28;20050;-83
2022/03/04 01:08:34;;;;;;;35.58;18.90;;;3.10;84.10;;;0.13;85.66;100979.34;4988053;28;20164;-83
2022/03/04 01:11:01;;;;;;;42.45;19.55;;;3.00;84.00;;;0.12;85.54;100977.66;4982549;28;20042;-83
2022/03/04 01:13:30;;;;;;;35.78;18.25;;;3.00;84.00;;;0.09;85.84;100972.50;4985701;28;20045;-83
2022/03/04 01:15:57;;;;;;;35.75;19.45;;;3.00;84.30;;;0.04;86.36;100972.84;4991229;28;20050;-83
2022/03/04 01:18:25;;;;;;;34.53;19.00;;;3.00;84.30;;;0.03;86.67;100975.63;4990313;28;20096;-83
2022/03/04 01:20:52;;;;;;;36.55;19.38;;;3.00;84.60;;;-0.06;86.29;100971.72;4990720;28;20058;-83
2022/03/04 01:23:20;;;;;;;40.50;18.95;;;2.90;84.50;;;-0.12;86.64;100978.34;4980754;28;20089;-83
2022/03/04 01:25:47;;;;;;;36.20;19.73;;;2.90;84.50;;;-0.16;86.82;100976.00;4971342;28;20504;-83
2022/03/04 01:28:15;;;;;;;35.65;19.30;;;2.90;84.60;;;-0.15;87.31;100973.25;4979330;28;20058;-84
2022/03/04 01:30:43;;;;;;;36.80;18.65;;;2.90;84.80;;;-0.07;87.36;100975.38;4990177;28;20109;-83
2022/03/04 01:33:10;;;;;;;32.20;18.25;;;2.90;85.00;;;-0.06;87.12;100969.06;4990730;28;20050;-83
2022/03/04 01:35:41;;;;;;;33.05;18.88;;;2.90;85.10;;;-0.02;87.56;100982.13;4990366;28;20282;-83
2022/03/04 01:38:08;;;;;;;35.08;18.70;;;2.80;85.20;;;-0.05;87.26;100979.66;4990655;28;20552;-83
2022/03/04 01:40:36;;;;;;;34.17;17.20;;;2.80;85.20;;;-0.07;87.20;100973.56;4972748;28;20130;-83
2022/03/04 01:43:03;;;;;;;33.22;18.20;;;2.80;85.30;;;-0.01;87.41;100967.78;4959157;28;20090;-83
2022/03/04 01:45:31;;;;;;;37.05;19.08;;;2.80;85.50;;;0.07;87.52;100966.41;4981207;28;20460;-83
2022/03/04 01:48:00;;;;;;;34.38;18.25;;;2.80;85.70;;;0.08;87.24;100963.63;4989768;28;20513;-83
2022/03/04 01:50:28;;;;;;;36.42;17.95;;;2.80;85.90;;;0.07;87.87;100961.06;4990314;28;20054;-83
2022/03/04 01:52:55;;;;;;;35.00;18.52;;;2.80;86.00;;;0.14;87.54;100959.69;4987321;28;20049;-83
2022/03/04 01:55:22;;;;;;;32.35;18.45;;;2.80;86.00;;;0.21;87.35;100960.09;4971004;28;20122;-83
2022/03/04 01:57:50;;;;;;;36.08;18.05;;;2.80;86.10;;;0.16;87.34;100965.78;4973505;28;20043;-83
2022/03/04 02:00:17;;;;;;;38.58;19.48;;;2.90;86.10;;;0.09;87.50;100961.81;4974483;28;20066;-83
2022/03/04 02:02:46;;;;;;;35.38;17.98;;;2.80;86.10;;;0.05;87.51;100966.50;4981672;28;20038;-83
2022/03/04 02:05:16;;;;;;;35.33;17.92;;;2.80;86.00;;;0.04;87.96;100971.97;4968831;28;20436;-83
2022/03/04 02:07:44;;;;;;;35.50;18.05;;;2.80;86.00;;;0.02;87.63;100979.22;4989836;28;20056;-83
2022/03/04 02:10:12;;;;;;;39.40;20.35;;;2.80;86.00;;;-0.04;87.68;100973.38;4969019;28;20761;-83
2022/03/04 02:12:40;;;;;;;35.35;17.63;;;2.80;85.90;;;-0.04;88.00;100973.38;4970715;28;20122;-83
2022/03/04 02:15:10;;;;;;;33.28;17.80;;;2.80;86.20;;;-0.03;88.17;100969.72;4976754;28;20411;-83
2022/03/04 02:17:37;;;;;;;32.67;17.67;;;2.80;86.40;;;0.04;88.14;100972.84;4977525;28;20043;-83
2022/03/04 02:20:07;;;;;;;38.28;19.45;;;2.70;86.70;;;0.04;88.33;100970.16;4972761;28;20046;-83
2022/03/04 02:22:35;;;;;;;33.65;17.63;;;2.70;86.80;;;0.02;88.64;100960.50;4975585;28;20070;-83
2022/03/04 02:25:05;;;;;;;34.00;17.95;;;2.70;86.90;;;0.04;88.00;100963.94;4989879;28;20121;-83
2022/03/04 02:27:32;;;;;;;35.33;18.65;;;2.70;86.90;;;-0.02;87.91;100963.41;4984310;28;20039;-83
2022/03/04 02:30:00;;;;;;;33.55;18.60;;;2.70;86.80;;;-0.06;88.38;100961.91;4984344;28;20046;-83
2022/03/04 02:32:27;;;;;;;33.10;18.73;;;2.70;86.80;;;-0.07;88.39;100954.84;4984332;28;20051;-83
2022/03/04 02:34:56;;;;;;;33.72;18.70;;;2.70;87.10;;;-0.07;88.25;100954.84;4989944;28;20041;-83
2022/03/04 02:37:24;;;;;;;35.58;18.55;;;2.70;87.10;;;-0.10;88.36;100952.34;4986650;28;20061;-83
2022/03/04 02:39:52;;;;;;;34.15;18.95;;;2.70;87.00;;;-0.09;88.10;100961.25;4970128;28;20042;-83
2022/03/04 02:42:22;;;;;;;33.80;18.05;;;2.70;87.00;;;-0.16;88.49;100954.59;4954407;28;20089;-83
2022/03/04 02:44:49;;;;;;;36.55;18.23;;;2.60;87.00;;;-0.21;88.83;100960.25;4971545;28;20050;-83
2022/03/04 02:47:16;;;;;;;30.17;16.90;;;2.60;87.10;;;-0.41;89.33;100951.78;4980787;28;20129;-83
2022/03/04 02:49:44;;;;;;;33.05;19.10;;;2.60;87.00;;;-0.43;90.59;100953.69;4969904;28;20041;-83
2022/03/04 02:52:11;;;;;;;32.63;17.92;;;2.50;87.20;;;-0.50;90.62;100957.72;4954532;28;20437;-83
2022/03/04 02:54:38;;;;;;;32.65;18.45;;;2.50;87.40;;;-0.44;91.32;100960.00;4970063;28;20126;-83
2022/03/04 02:57:07;;;;;;;32.90;17.95;;;2.50;87.70;;;-0.56;91.25;100958.16;4953749;28;20481;-83
2022/03/04 02:59:34;;;;;;;35.83;17.98;;;2.40;87.60;;;-0.59;91.86;100955.69;4952633;28;20042;-83
2022/03/04 03:02:02;;;;;;;32.33;18.23;;;2.40;87.60;;;-0.60;91.86;100956.63;4977635;28;20046;-83
2022/03/04 03:04:29;;;;;;;32.17;17.88;;;2.40;87.90;;;-0.64;92.28;100960.47;4981197;28;20046;-83
2022/03/04 03:06:57;;;;;;;35.55;17.70;;;2.30;88.10;;;-0.63;92.28;100956.81;4987791;28;20564;-83
2022/03/04 03:09:25;;;;;;;37.80;18.83;;;2.30;88.20;;;-0.64;92.67;100955.13;4971812;28;20054;-83
2022/03/04 03:11:52;;;;;;;34.22;18.95;;;2.30;88.40;;;-0.70;92.42;100960.88;4985257;28;20042;-83
2022/03/04 03:14:21;;;;;;;31.67;18.27;;;2.30;88.50;;;-0.73;92.95;100964.59;4970102;28;20051;-83
2022/03/04 03:16:48;;;;;;;37.42;19.83;;;2.30;88.60;;;-0.71;93.11;100972.53;4986096;28;20117;-83
2022/03/04 03:19:15;;;;;;;36.58;18.27;;;2.20;88.50;;;-0.64;93.05;100960.47;4987912;28;20038;-83
2022/03/04 03:21:43;;;;;;;36.50;18.83;;;2.20;88.90;;;-0.75;93.08;100963.00;4970856;28;20405;-84
2022/03/04 03:24:10;;;;;;;32.97;18.45;;;2.20;88.70;;;-0.80;93.04;100958.81;4952508;28;20055;-83
2022/03/04 03:26:37;;;;;;;34.17;18.45;;;2.20;88.80;;;-0.90;92.83;100965.69;4974305;28;20121;-83
2022/03/04 03:29:05;;;;;;;35.40;17.98;;;2.10;88.70;;;-0.96;92.99;100962.59;4976724;28;20043;-83
2022/03/04 03:31:33;;;;;;;28.92;17.45;;;2.10;88.80;;;-1.02;93.98;100955.81;4952122;28;20058;-83
2022/03/04 03:34:01;;;;;;;32.75;18.00;;;2.10;88.90;;;-0.99;94.11;100961.84;4970995;28;20053;-84
2022/03/04 03:36:28;;;;;;;35.33;18.02;;;2.00;88.90;;;-0.99;94.20;100967.16;4980444;28;20035;-84
2022/03/04 03:38:56;;;;;;;33.28;18.42;;;2.00;89.20;;;-0.97;94.93;100964.41;4975280;28;20133;-84
2022/03/04 03:41:23;;;;;;;36.95;18.15;;;2.00;89.70;;;-0.85;95.55;100971.63;4974836;28;20456;-84
2022/03/04 03:43:50;;;;;;;36.25;19.60;;;2.00;90.10;;;-0.77;95.78;100971.13;4975171;28;20050;-84
2022/03/04 03:46:17;;;;;;;32.00;18.65;;;2.00;90.60;;;-0.69;95.29;100978.63;4974913;28;20427;-84
2022/03/04 03:48:46;;;;;;;32.97;18.58;;;2.00;90.90;;;-0.73;95.29;100972.63;4994883;23;20049;-89
2022/03/04 03:51:13;;;;;;;37.97;19.48;;;2.00;90.70;;;-0.79;94.74;100973.88;5010462;28;20038;-90
2022/03/04 03:53:41;;;;;;;37.25;19.60;;;2.10;90.60;;;-0.86;94.67;100974.38;4983821;28;20038;-91
2022/03/04 03:56:08;;;;;;;35.83;18.60;;;2.00;90.30;;;-0.95;95.18;100973.19;5007167;28;20113;-90
2022/03/04 03:58:35;;;;;;;34.45;17.85;;;1.90;90.20;;;-1.08;95.13;100972.25;5012743;28;20054;-90
2022/03/04 04:01:03;;;;;;;36.17;18.92;;;1.90;90.10;;;-1.12;95.32;100976.94;5011975;28;20073;-90
2022/03/04 04:03:30;;;;;;;32.75;18.63;;;1.90;90.10;;;-1.10;95.35;100976.84;5009597;28;20050;-91
2022/03/04 04:05:59;;;;;;;37.05;19.27;;;1.90;90.10;;;-1.10;95.28;100990.19;5004676;28;20050;-90
2022/03/04 04:08:26;;;;;;;33.00;19.13;;;1.90;90.10;;;-1.07;95.29;100976.63;4985037;28;20761;-90
2022/03/04 04:10:54;;;;;;;38.95;19.13;;;1.90;90.10;;;-1.06;95.40;100986.38;4987596;28;20618;-90
2022/03/04 04:13:21;;;;;;;36.83;19.23;;;1.90;90.10;;;-0.98;95.11;100992.91;5012385;28;20042;-89
2022/03/04 04:15:48;;;;;;;35.50;18.73;;;1.90;90.20;;;-1.04;94.29;100995.97;5012389;28;20049;-90
2022/03/04 04:18:16;;;;;;;35.08;19.50;;;1.90;90.10;;;-1.05;94.27;101001.41;5012251;28;20050;-90
2022/03/04 04:20:43;;;;;;;40.13;20.70;;;1.80;90.00;;;-1.10;94.84;101006.22;4993914;28;20048;-90
2022/03/04 04:23:11;;;;;;;37.58;19.63;;;1.80;90.00;;;-1.14;95.03;100999.31;5011243;28;20061;-90
2022/03/04 04:25:39;;;;;;;35.67;19.67;;;1.80;90.10;;;-1.21;95.15;101005.06;5003569;28;20551;-90
2022/03/04 04:28:06;;;;;;;37.88;19.67;;;1.80;90.10;;;-1.28;94.62;101003.72;5011519;28;20038;-90
2022/03/04 04:30:34;;;;;;;33.47;19.33;;;1.70;90.00;;;-1.21;95.11;101009.56;5011528;28;20076;-90
2022/03/04 04:33:01;;;;;;;36.67;19.13;;;1.70;90.30;;;-1.23;94.96;101004.31;5012120;28;20045;-90
2022/03/04 04:35:28;;;;;;;36.78;19.88;;;1.70;90.20;;;-1.23;94.82;101006.13;4994034;28;20045;-90
2022/03/04 04:37:55;;;;;;;32.42;18.35;;;1.70;90.00;;;-1.32;94.67;101006.69;5010458;28;20077;-89
2022/03/04 04:40:25;;;;;;;37.83;18.90;;;1.70;90.00;;;-1.31;94.48;101011.94;5011281;28;20074;-90
2022/03/04 04:42:52;;;;;;;37.38;18.25;;;1.70;90.10;;;-1.45;94.93;101011.94;5005883;28;20481;-90
2022/03/04 04:45:19;;;;;;;38.72;19.33;;;1.60;90.00;;;-1.46;95.12;101004.91;4990248;28;20066;-90
2022/03/04 04:47:46;;;;;;;38.80;19.80;;;1.60;90.10;;;-1.40;95.50;101009.84;4975322;28;20046;-90
2022/03/04 04:50:14;;;;;;;35.05;18.77;;;1.50;90.30;;;-1.46;95.60;101004.91;5011239;28;20050;-90
2022/03/04 04:52:41;;;;;;;37.83;19.20;;;1.50;90.40;;;-1.51;95.64;101012.31;5011899;28;20128;-90
2022/03/04 04:55:09;;;;;;;34.65;19.38;;;1.50;90.60;;;-1.58;95.94;101004.69;5011298;28;20054;-90
2022/03/04 04:57:38;;;;;;;37.60;19.63;;;1.50;90.60;;;-1.61;95.77;101006.69;4994233;28;20508;-90
2022/03/04 05:00:07;;;;;;;34.58;19.80;;;1.40;90.40;;;-1.62;95.99;101005.84;4986119;28;20413;-90
2022/03/04 05:02:35;;;;;;;35.58;19.25;;;1.50;90.70;;;-1.59;96.50;101002.97;5002348;28;20033;-90
2022/03/04 05:05:03;;;;;;;40.10;20.45;;;1.40;90.80;;;-1.65;96.77;101000.69;4993439;28;20515;-90
2022/03/04 05:07:31;;;;;;;42.05;21.15;;;1.40;90.90;;;-1.71;96.61;101005.53;5011260;28;20070;-89
2022/03/04 05:09:58;;;;;;;42.88;21.15;;;1.40;90.90;;;-1.73;96.94;101004.75;5012792;28;20144;-90
2022/03/04 05:12:25;;;;;;;37.85;20.35;;;1.30;90.90;;;-1.74;97.34;101006.56;5010233;28;20109;-90
2022/03/04 05:14:54;;;;;;;40.45;20.92;;;1.30;91.10;;;-1.70;97.75;101008.09;5015370;28;20045;-92
2022/03/04 05:17:22;;;;;;;41.90;20.33;;;1.30;91.10;;;-1.73;97.58;101000.31;5002223;28;20046;-94
2022/03/04 05:19:56;;;;;;;44.05;20.65;;;1.30;91.10;;;-1.80;97.11;101006.97;4997875;28;20058;-90
2022/03/04 05:22:24;;;;;;;39.15;21.60;;;1.30;91.10;;;-1.90;97.14;101006.66;4975424;28;20047;-92
2022/03/04 05:24:51;;;;;;;39.85;20.95;;;1.20;90.90;;;-1.89;98.08;101007.50;4974918;28;20046;-90
2022/03/04 05:27:18;;;;;;;40.28;20.30;;;1.20;91.30;;;-1.94;98.08;101002.47;4995208;28;20052;-91
2022/03/04 05:29:46;;;;;;;37.55;20.30;;;1.20;91.30;;;-1.93;97.66;101005.97;5010302;28;20069;-94
2022/03/04 05:32:15;;;;;;;38.58;20.98;;;1.20;91.30;;;-1.99;98.07;101008.06;4993562;28;20042;-90
2022/03/04 05:34:42;;;;;;;37.38;19.48;;;1.10;91.30;;;-1.94;97.68;101005.13;4997122;28;20641;-89
2022/03/04 05:37:09;;;;;;;43.25;21.05;;;1.20;91.40;;;-1.86;98.72;101012.66;5005746;28;20038;-90
2022/03/04 05:39:37;;;;;;;43.35;20.25;;;1.10;91.60;;;-1.86;98.15;101018.00;5010810;28;20069;-92
2022/03/04 05:42:05;;;;;;;37.33;20.52;;;1.10;91.70;;;-1.81;97.98;101015.91;4993917;28;20050;-93
2022/03/04 05:44:33;;;;;;;38.40;20.13;;;1.10;91.80;;;-1.84;96.95;101021.44;4991689;28;20042;-92
2022/03/04 05:47:00;;;;;;;42.97;20.20;;;1.10;91.50;;;-1.84;97.42;101016.94;4990030;28;20038;-91
2022/03/04 05:49:29;;;;;;;38.28;20.55;;;1.10;91.70;;;-1.94;97.54;101022.91;5010794;28;20100;-92
2022/03/04 05:51:56;;;;;;;37.50;19.77;;;1.10;91.60;;;-2.05;97.26;101023.59;5006079;28;20049;-94
2022/03/04 05:54:24;;;;;;;38.28;20.65;;;1.10;91.50;;;-2.05;98.06;101035.09;4999206;28;20496;-90
2022/03/04 05:56:51;;;;;;;36.45;19.17;;;1.00;91.70;;;-2.00;98.33;101038.38;4978703;28;20049;-89
2022/03/04 05:59:19;;;;;;;41.28;21.00;;;1.00;92.00;;;-1.91;98.25;101041.41;5009399;28;20061;-89
2022/03/04 06:01:46;;;;;;;36.65;19.25;;;1.00;92.20;;;-1.85;97.66;101046.38;4990868;28;20105;-90
2022/03/04 06:04:14;;;;;;;37.75;19.58;;;1.00;92.20;;;-1.87;97.61;101048.28;5007054;28;20163;-89
2022/03/04 06:06:42;;;;;;;36.72;20.38;;;1.00;92.30;;;-1.95;97.23;101048.75;5008078;28;20578;-87
2022/03/04 06:09:10;;;;;;;39.83;20.75;;;1.00;92.20;;;-1.94;97.79;101046.94;4992726;28;20159;-87
2022/03/04 06:11:37;;;;;;;45.83;21.25;;;1.00;92.30;;;-1.90;98.02;101048.50;4990172;28;20583;-85
2022/03/04 06:14:06;;;;;;;43.85;21.60;;;1.00;92.30;;;-1.86;98.50;101050.88;5010209;28;20129;-85
2022/03/04 06:16:33;;;;;;;42.78;21.45;;;1.00;92.50;;;-1.77;98.64;101050.31;5009691;28;20048;-85
2022/03/04 06:19:00;;;;;;;47.38;22.42;;;1.00;92.80;;;-1.68;98.63;101038.22;5008178;28;20088;-85
2022/03/04 06:21:28;;;;;;;40.72;20.83;;;1.00;92.90;;;-1.63;98.26;101043.28;5009205;28;20042;-84
2022/03/04 06:23:56;;;;;;;47.70;21.73;;;1.10;93.00;;;-1.58;98.39;101044.72;4993388;28;20037;-84
2022/03/04 06:26:24;;;;;;;40.42;20.15;;;1.10;93.10;;;-1.50;98.26;101052.28;4993109;28;20121;-84
2022/03/04 06:28:51;;;;;;;39.28;19.70;;;1.10;93.20;;;-1.40;97.72;101060.56;4989984;28;20105;-84
2022/03/04 06:31:18;;;;;;;41.47;21.38;;;1.20;93.10;;;-1.41;97.44;101067.72;5009510;28;20046;-85
2022/03/04 06:33:46;;;;;;;42.63;21.15;;;1.10;93.20;;;-1.56;97.63;101063.31;5009626;28;20033;-85
2022/03/04 06:36:14;;;;;;;43.03;21.33;;;1.20;93.20;;;-1.60;97.91;101064.44;5009553;28;20046;-85
2022/03/04 06:38:46;;;;;;;37.28;20.27;;;1.20;93.20;;;-1.65;97.78;101069.22;5009894;28;20512;-85
2022/03/04 06:41:15;;;;;;;39.95;20.95;;;1.20;93.10;;;-1.60;98.84;101077.78;5007537;28;20073;-85
2022/03/04 06:43:44;;;;;;;39.42;20.70;;;1.20;93.10;;;-1.53;98.50;101080.94;4991154;28;20110;-85
2022/03/04 06:46:12;;;;;;;42.63;22.23;;;1.40;93.60;;;-1.47;99.37;101086.75;4989845;28;20145;-85
2022/03/04 06:48:39;;;;;;;41.25;20.67;;;1.20;93.70;;;-1.41;99.09;101093.53;4992700;28;20153;-85
2022/03/04 06:51:06;;;;;;;46.70;21.52;;;1.20;94.00;;;-1.29;99.82;101091.97;5009567;28;20045;-85
2022/03/04 06:53:33;;;;;;;39.08;21.50;;;1.30;94.30;;;-1.25;99.73;101097.00;5003918;28;20133;-85
2022/03/04 06:56:01;;;;;;;46.17;20.88;;;1.30;94.40;;;-1.19;99.67;101093.09;4998616;28;20069;-85
2022/03/04 06:58:30;;;;;;;39.08;20.20;;;1.30;94.30;;;-1.15;99.90;101094.63;5001682;28;20044;-84
2022/03/04 07:00:57;;;;;;;40.58;20.52;;;1.40;94.40;;;-1.13;99.73;101082.03;4999892;28;20069;-85
2022/03/04 07:03:24;;;;;;;37.00;20.90;;;1.40;94.40;;;-1.01;99.67;101091.09;4999614;28;20661;-85
2022/03/04 07:05:52;;;;;;;37.85;20.25;;;1.40;94.50;;;-0.99;99.24;101094.50;5001797;28;20563;-85
2022/03/04 07:08:19;;;;;;;41.33;20.30;;;1.50;94.50;;;-0.88;98.93;101096.53;5001538;28;20510;-85
2022/03/04 07:10:47;;;;;;;39.35;20.23;;;1.50;94.30;;;-0.80;98.79;101105.78;5008883;28;20543;-85
2022/03/04 07:13:15;;;;;;;39.25;20.75;;;1.60;94.40;;;-0.73;98.56;101097.38;5009398;28;20051;-86
2022/03/04 07:15:45;;;;;;;40.15;20.23;;;1.60;94.40;;;-0.58;98.18;101108.91;5001429;28;20041;-85
2022/03/04 07:18:13;;;;;;;46.47;21.37;;;1.80;94.60;;;-0.49;97.52;101109.19;5007048;28;20034;-85
2022/03/04 07:20:42;;;;;;;36.67;20.17;;;1.70;94.30;;;-0.43;97.20;101107.91;5000847;28;20280;-85
2022/03/04 07:23:09;;;;;;;42.40;22.77;;;1.70;94.50;;;-0.32;97.34;101104.56;4995700;28;20097;-84
2022/03/04 07:25:36;;;;;;;45.83;21.77;;;1.80;94.50;;;-0.20;96.54;101109.09;4999765;28;20151;-86
2022/03/04 07:28:05;;;;;;;44.15;21.27;;;1.80;94.30;;;-0.09;95.77;101108.41;5007224;28;20038;-86
2022/03/04 07:30:33;;;;;;;39.60;20.55;;;1.90;94.10;;;0.01;95.33;101109.50;4998253;28;20045;-86
2022/03/04 07:33:02;;;;;;;44.92;20.98;;;2.00;93.90;;;0.12;94.47;101119.50;4999093;28;20586;-86
2022/03/04 07:35:29;;;;;;;39.17;20.75;;;2.00;93.70;;;0.23;93.99;101118.75;4994282;28;20051;-87
2022/03/04 07:37:57;;;;;;;43.60;21.20;;;2.10;93.80;;;0.35;93.11;101117.94;4997520;28;20038;-87
2022/03/04 07:40:24;;;;;;;38.33;20.75;;;2.10;93.50;;;0.45;92.76;101118.19;5006926;28;20522;-86
2022/03/04 07:42:52;;;;;;;38.28;20.60;;;2.20;93.50;;;0.50;91.96;101110.69;4991566;28;20034;-87
2022/03/04 07:45:19;;;;;;;39.83;21.23;;;2.20;93.30;;;0.58;91.75;101116.38;4999424;28;20078;-87
2022/03/04 07:47:47;;;;;;;43.40;21.13;;;2.30;93.00;;;0.66;91.14;101111.34;4989262;28;20393;-87
2022/03/04 07:50:17;;;;;;;44.03;21.90;;;2.40;92.80;;;0.74;90.94;101116.16;5000165;28;20061;-87
2022/03/04 07:52:45;;;;;;;39.70;19.75;;;2.40;92.80;;;0.86;90.73;101109.97;4991065;28;20637;-87
2022/03/04 07:55:15;;;;;;;40.53;20.58;;;2.50;92.90;;;0.94;90.35;101117.47;4998458;28;20038;-87
2022/03/04 07:57:43;;;;;;;38.30;21.45;;;2.50;92.70;;;1.03;89.95;101114.16;5008813;28;20144;-87
2022/03/04 08:00:14;;;;;;;39.35;20.52;;;2.60;92.40;;;1.16;89.25;101112.31;5005437;28;20070;-87
2022/03/04 08:02:42;;;;;;;38.10;20.85;;;2.60;92.30;;;1.29;87.94;101112.28;5003808;28;20076;-87
2022/03/04 08:05:10;;;;;;;41.83;20.85;;;2.70;91.80;;;1.39;87.85;101114.28;4997334;28;20106;-88
2022/03/04 08:07:39;;;;;;;38.15;20.55;;;2.80;91.60;;;1.50;87.18;101119.75;4986368;28;20046;-87
2022/03/04 08:10:09;;;;;;;33.97;20.23;;;2.90;91.50;;;1.54;86.82;101122.13;5003174;28;20126;-87
2022/03/04 08:12:38;;;;;;;34.40;19.58;;;2.90;91.00;;;1.59;86.54;101112.88;5008822;28;20053;-87
2022/03/04 08:15:08;;;;;;;35.88;20.10;;;3.00;91.30;;;1.61;86.34;101100.19;5005346;28;20100;-90
2022/03/04 08:17:35;;;;;;;37.20;20.02;;;3.00;91.00;;;1.63;85.23;101109.84;5007753;28;20099;-89
2022/03/04 08:20:03;;;;;;;38.17;20.05;;;3.10;90.80;;;1.69;85.77;101105.84;5007256;28;20046;-88
2022/03/04 08:22:30;;;;;;;34.92;19.40;;;3.20;90.40;;;1.74;86.12;101101.00;5011753;28;20054;-89
2022/03/04 08:24:59;;;;;;;39.60;19.75;;;3.20;90.30;;;1.79;85.48;101104.22;5001929;28;20113;-88
2022/03/04 08:27:26;;;;;;;40.10;21.48;;;3.30;90.20;;;1.85;85.39;101114.50;4998483;28;20088;-88
2022/03/04 08:29:54;;;;;;;39.53;21.25;;;3.30;90.00;;;1.88;85.00;101116.94;5010371;28;20443;-90
2022/03/04 08:32:23;;;;;;;36.60;21.40;;;3.40;90.00;;;1.89;85.03;101115.97;5011892;28;20100;-89
2022/03/04 08:34:51;;;;;;;36.63;20.30;;;3.40;89.60;;;1.99;84.99;101115.28;5009592;28;20049;-89
2022/03/04 08:37:18;;;;;;;38.08;20.67;;;3.50;89.70;;;2.02;84.73;101125.78;5010439;28;20049;-90
2022/03/04 08:39:45;;;;;;;43.13;20.80;;;3.60;89.40;;;2.07;84.16;101118.25;5010389;28;20427;-88
2022/03/04 08:42:14;;;;;;;43.10;20.80;;;3.60;89.40;;;2.12;83.93;101122.31;5000774;28;20112;-91
2022/03/04 08:44:42;;;;;;;37.42;20.40;;;3.60;89.00;;;2.18;84.08;101129.06;5004040;28;20038;-91
2022/03/04 08:47:09;;;;;;;41.42;20.65;;;3.70;88.90;;;2.28;83.83;101127.38;5011995;28;20053;-90
2022/03/04 08:49:37;;;;;;;39.15;19.73;;;3.80;88.70;;;2.32;83.57;101123.50;4998276;28;20500;-91
2022/03/04 08:52:06;;;;;;;37.70;19.77;;;3.80;88.70;;;2.38;82.76;101118.63;5027831;28;20055;-92
2022/03/04 08:54:34;;;;;;;40.08;19.77;;;3.90;88.10;;;2.42;82.14;101118.28;5024581;28;20040;-91
2022/03/04 08:57:02;;;;;;;37.55;20.85;;;3.90;87.90;;;2.48;82.76;101122.34;5021385;28;20049;-91
2022/03/04 08:59:31;;;;;;;38.20;19.50;;;4.00;87.60;;;2.51;81.47;101117.59;5045186;28;20049;-91
2022/03/04 09:01:59;;;;;;;36.13;18.73;;;4.10;87.80;;;2.56;81.39;101119.91;5017071;28;20053;-90
2022/03/04 09:04:26;;;;;;;35.58;19.88;;;4.10;87.50;;;2.60;81.46;101107.94;5028768;28;20037;-92
2022/03/04 09:06:54;;;;;;;41.55;20.27;;;4.20;87.20;;;2.64;80.97;101112.09;5027028;28;20046;-92
2022/03/04 09:09:21;;;;;;;40.60;20.38;;;4.20;86.90;;;2.67;81.23;101117.25;5023197;28;20057;-91
2022/03/04 09:11:48;;;;;;;35.15;18.60;;;4.20;86.80;;;2.77;79.62;101119.22;5030606;28;20115;-92
2022/03/04 09:14:19;;;;;;;37.17;18.92;;;4.30;86.70;;;2.83;80.62;101126.81;5044379;28;20034;-91
2022/03/04 09:16:48;;;;;;;33.13;19.42;;;4.40;86.40;;;2.85;79.31;101120.34;5028788;28;20051;-90
2022/03/04 09:19:15;;;;;;;36.60;19.27;;;4.40;85.60;;;2.87;79.67;101114.84;5028202;28;20526;-92
2022/03/04 09:21:43;;;;;;;35.85;18.50;;;4.40;85.50;;;2.91;78.41;101113.63;5030340;28;20048;-92
2022/03/04 09:24:10;;;;;;;33.20;18.20;;;4.50;85.40;;;2.99;77.15;101111.22;5031095;28;20041;-91
2022/03/04 09:26:38;;;;;;;35.90;18.58;;;4.50;85.10;;;3.05;78.01;101105.34;5029980;28;20464;-87
2022/03/04 09:29:05;;;;;;;35.60;18.10;;;4.60;84.70;;;3.13;77.02;101112.78;5030725;28;20037;-89
2022/03/04 09:31:33;;;;;;;36.38;19.02;;;4.60;84.60;;;3.16;78.09;101106.31;5029794;28;20041;-90
2022/03/04 09:34:02;;;;;;;31.33;17.10;;;4.70;84.50;;;3.23;76.09;101110.22;5021661;28;20059;-90
2022/03/04 09:36:29;;;;;;;34.15;18.27;;;4.70;83.70;;;3.24;75.63;101109.25;5024622;28;20052;-91
2022/03/04 09:38:57;;;;;;;33.53;18.30;;;4.80;83.60;;;3.29;74.61;101117.81;5022556;28;20041;-93
2022/03/04 09:41:26;;;;;;;34.83;17.65;;;4.80;82.80;;;3.31;73.68;101111.34;5030806;28;20034;-93
2022/03/04 09:43:56;;;;;;;33.08;17.80;;;4.90;82.90;;;3.41;74.19;101110.56;5028151;28;20606;-91
2022/03/04 09:46:24;;;;;;;36.63;18.10;;;4.90;82.80;;;3.50;73.15;101107.16;5049707;28;20044;-91
2022/03/04 09:48:53;;;;;;;33.78;17.13;;;5.00;82.70;;;3.56;71.83;101120.13;5043799;23;20056;-83
2022/03/04 09:51:23;;;;;;;33.83;18.20;;;5.00;82.00;;;3.61;72.18;101117.91;4991705;28;20061;-83
2022/03/04 09:53:52;;;;;;;30.60;17.73;;;5.10;81.50;;;3.68;72.46;101107.50;5013633;28;20042;-84
2022/03/04 09:56:20;;;;;;;38.33;18.27;;;5.10;81.60;;;3.70;73.26;101110.91;5013702;28;20096;-83
2022/03/04 09:58:48;;;;;;;34.70;17.63;;;5.10;81.00;;;3.71;73.20;101116.19;5009612;28;20041;-84
2022/03/04 10:01:16;;;;;;;33.03;17.77;;;5.20;80.70;;;3.82;72.09;101109.91;5000828;28;20050;-83
2022/03/04 10:03:47;;;;;;;32.35;18.38;;;5.30;81.20;;;3.89;72.04;101111.13;5001225;28;20045;-84
2022/03/04 10:06:15;;;;;;;34.38;18.27;;;5.30;80.70;;;3.95;70.84;101109.75;5014008;28;20819;-83
2022/03/04 10:08:46;;;;;;;36.88;18.45;;;5.40;80.00;;;4.03;70.65;101109.13;5003626;28;20496;-84
2022/03/04 10:11:26;;;;;;;33.10;18.13;;;5.50;80.00;;;4.10;69.98;101107.63;4998053;28;20042;-83